createdAt,value
2018-12-06T20:44:24.967Z,92.10
2018-12-06T20:47:06.887Z,92.30
2018-12-06T20:49:48.603Z,92.50
2018-12-06T20:52:30.207Z,92.80
2018-12-06T20:55:11.848Z,93.20
2018-12-06T20:57:53.658Z,93.60
2018-12-06T21:00:35.795Z,93.90
2018-12-06T21:03:19.198Z,94.00
2018-12-06T21:06:01.875Z,94.10
2018-12-06T21:08:44.039Z,94.30
2018-12-06T21:11:26.049Z,94.40
2018-12-06T21:14:07.942Z,94.40
2018-12-06T21:16:49.969Z,94.40
2018-12-06T21:19:32.273Z,94.50
2018-12-06T21:22:14.019Z,94.50
2018-12-06T21:24:56.074Z,94.60
2018-12-06T21:27:37.813Z,94.60
2018-12-06T21:30:20.152Z,94.60
2018-12-06T21:33:01.834Z,94.60
2018-12-06T21:35:43.699Z,94.70
2018-12-06T21:38:26.746Z,94.80
2018-12-06T21:41:08.923Z,94.80
2018-12-06T21:43:50.982Z,94.90
2018-12-06T21:46:33.074Z,95.20
2018-12-06T21:49:15.010Z,95.00
2018-12-06T21:51:56.862Z,95.00
2018-12-06T21:54:39.172Z,95.00
2018-12-06T21:57:20.961Z,94.90
2018-12-06T22:00:03.081Z,94.90
2018-12-06T22:02:46.056Z,94.80
2018-12-06T22:05:28.868Z,94.80
2018-12-06T22:08:11.160Z,94.80
2018-12-06T22:10:53.188Z,94.80
2018-12-06T22:13:35.372Z,94.80
2018-12-06T22:16:17.566Z,94.80
2018-12-06T22:18:59.528Z,94.80
2018-12-06T22:21:41.551Z,94.70
2018-12-06T22:24:23.219Z,94.60
2018-12-06T22:27:05.517Z,94.60
2018-12-06T22:29:47.583Z,94.60
2018-12-06T22:32:29.781Z,94.60
2018-12-06T22:35:11.840Z,94.60
2018-12-06T22:37:54.072Z,94.60
2018-12-06T22:40:36.106Z,94.60
2018-12-06T22:43:18.092Z,94.60
2018-12-06T22:46:00.919Z,94.70
2018-12-06T22:48:43.254Z,94.70
2018-12-06T22:51:24.973Z,94.70
2018-12-06T22:54:07.046Z,94.70
2018-12-06T22:56:49.099Z,94.80
2018-12-06T22:59:31.225Z,94.80
2018-12-06T23:02:13.076Z,94.80
2018-12-06T23:04:54.926Z,94.90
2018-12-06T23:07:36.976Z,94.90
2018-12-06T23:10:18.815Z,95.00
2018-12-06T23:13:00.723Z,95.00
2018-12-06T23:15:42.672Z,95.00
2018-12-06T23:18:24.562Z,95.00
2018-12-06T23:21:06.748Z,95.00
2018-12-06T23:23:48.688Z,95.00
2018-12-06T23:26:30.666Z,95.00
2018-12-06T23:29:13.643Z,94.90
2018-12-06T23:31:55.832Z,95.00
2018-12-06T23:34:37.747Z,95.00
2018-12-06T23:37:19.839Z,95.00
2018-12-06T23:40:01.747Z,95.10
2018-12-06T23:42:43.808Z,95.10
2018-12-06T23:45:25.607Z,95.10
2018-12-06T23:48:07.597Z,95.10
2018-12-06T23:50:49.568Z,95.10
2018-12-06T23:53:31.227Z,95.30
2018-12-06T23:56:13.243Z,95.10
2018-12-06T23:58:55.240Z,95.10
